Terminal Aerodrome Forecast
Issued by NWS Houston/Galveston, TX

Home | Current Version | Previous Version | Text Only | Print | Product List | Glossary On
Versions: 1 2 3 4 5 6 7 8 9 10 11 12 13 14 15 16 17 18 19 20 21 22 23 24 25 26 27 28 29 30 31 32 33 34 35 36 37 38 39 40 41 42 43 44 45 46 47 48 49
000
FTUS44 KHGX 202240 AAA
TAFGLS
TAF AMD
KGLS 202240Z 2023/2118 10006KT P6SM VCSH SCT008 BKN018 OVC026
      TEMPO 2100/2103 VRB15G35KT 3SM TSRA BR BKN015CB
     FM210300 16006KT 6SM BR VCSH BKN007 OVC030
     FM210600 20005KT 3SM BR OVC005
     FM211200 20005KT 1SM BR OVC004
     FM211500 21008KT 4SM BR SCT005 OVC015=

USA.gov is the U.S. government's official web portal to all federal, state and local government web resources and services.